Monday, December 22, 2014
06:20 UTC
  |  Log In   |  Register Free
Airport Search:

Henry Post Aaf (Fort Sill) Airport
(KFSI)

Henry Post Aaf (Fort Sill) Airport Diagram
No Airport Diagram Available

FAA data valid effective November 13, 2014 - January 08, 2015 (unless otherwise noted).

 
 
 
 
 
 
 
 
 
 
 
 
 
 

Current Aviation Weather for Henry Post Aaf (Fort Sill) Airport (KFSI)

The most recent METAR observation for KFSI was updated at: 2114
METAR Summary (Translated METAR)
KFSI
182058Z AUTO 02007KT 10SM OVC009 07/06 A3010 RMK AO2 SLP196 T00650055
KLAW
182053Z 01004KT 10SM OVC008 07/05 A3011 RMK AO2 CIG 007V013 SLP202 T00720050 56017
(5.0 nm SW from KFSI)
KDUC
182055Z AUTO 05003KT OVC003 06/06 A3011 RMK AO2 PWINO
(24.4 nm SE from KFSI)
TAF Summary (Translated TAF)
KFSI
2003/2104 02006KT 9999 OVC025 620703 QNH3015INS BECMG 2005/2006 15003KT 9999 OVC012 620701 QNH3016INS BECMG 2006/2007 19006KT 4800 BR OVC007 QNH3020INS BECMG 2015/2016 18009KT 9999 NSW BKN012 BKN020 QNH3020INS BECMG 2017/2018 18009KT 9999 BKN020 QNH3014INS BECMG 2101/2102 18004KT 9999 OVC010 QNH3015INS TX08/2022Z TN01/2012Z AMD 200325 LAST NO AMDS AFT 2004 NEXT 2214
KLAW
(5.0 nm SW from KFSI)
220122Z 2201/2224 15010KT P6SM FEW008 SCT027 FM220800 24005KT 4SM BR OVC015 FM221100 30008KT P6SM SCT015 FM221600 33015G22KT P6SM FEW100
  Airport Weather Conditions for KFSI

 Current Weather at FSI
48° F
Overcast
South winds at 13.8 mph
FSI NOAA Radar

Pressure: 29.59 in
Humidity: 96%
Wind: South at 13.8 MPH (12 KT)
Dew Point: 46.9°F
Visibility: 10.00 mi


Airport Weather Forecast for KFSI

Translated METAR and TAF for KFSI
Translated METAR for KFSI (0620 UTC 22 December 2014)
found at http://aviationweather.gov/adds/metars/
 
METAR text: KFSI 220613Z AUTO 15009KT 10SM OVC005 09/08 A2958 RMK AO2
Conditions at: KFSI (FORT SILL , OK, US) observed 0613 UTC 22 December 2014
Temperature: 9.0°C (48°F)
Dewpoint: 8.0°C (46°F) [RH = 93%]
Pressure (altimeter): 29.58 inches Hg (1001.8 mb)
Winds: from the SSE (150 degrees) at 10 MPH (9 knots; 4.7 m/s)
Visibility: 10 or more miles (16+ km)
Ceiling: 500 feet AGL
Clouds: overcast cloud deck at 500 feet AGL
Weather: automated observation with no human augmentation;
there may or may not be significant weather present at this time
Translated TAF for KFSI

There is no translated TAF available for this airport

Find All Airport Services Find A Hotel Find A Rental Car Find A Golf Course Find A Restaurant $100 Hamburger



FBO's on the Field
FBO Company Facility Photos Services Transportation Aviation Fuel Prices: Prices include tax
Catering Weather Repair Courtesy Rental Type 100LL JetA JetA+ MOGAS 8087
 
Add another FBO Facility Photos Catering Weather Repair Courtesy Rental Type 100LL JetA JetA+ MOGAS 8087
Services Transportation Aviation Fuel Prices: Prices include tax
There are no FBO's currently reporting fuel at FSI. List your FBO now


model-print
model-print
model-print
model-print